Tiszafured, Hungary
Current Conditions -  °F | °C
As of 2:40 AM on Saturday 29 Nov 2014 (Local Time) from LHDC Reporting Station
NA  
Wind Chill: 30°   Ceiling: NA
Heat Index: 36°   Visibility: NA
Dew Point: 34°   Wind: 7mph
Humidity: 93%   Direction: 50°NE
Pressure: 30.18"   Gusts: NA
Location:  47.62°N, 20.76°E
Report Text: LHDC 290040Z AUTO 05006KT 02/01 Q1022
Loading
Personal Weather Stations






























Interactive Weather Map New forecast layout! Learn more

10-Day Weather Forecast

Advertisements
Track Severe Weather on mobile